<?xml version="1.0" encoding="UTF-8" standalone="no" ?>
<gpx xmlns="http://www.topografix.com/GPX/1/1" xmlns:xsi="http://www.w3.org/2001/XMLSchema-instance" xsi:schemaLocation="http://www.topografix.com/GPX/1/1 http://www.topografix.com/GPX/1/1/gpx.xsd" version="1.1" creator="VisuGPX - https://www.visugpx.com">
  <metadata>
    <name>luzech 6 descentes</name>
    <desc><![CDATA[parcours typé enduro avec de belles descentes]]></desc>
  </metadata>
  <trk>
    <name><![CDATA[2014-04-01-08-18-57]]></name>
    <trkseg>
      <trkpt lat="44.42718" lon="1.32039">
        <ele>311.41</ele>
        <time>2014-04-01T11:31:10Z</time>
      </trkpt>
      <trkpt lat="44.42712" lon="1.32055">
        <ele>311.29</ele>
        <time>2014-04-01T11:31:16Z</time>
      </trkpt>
      <trkpt lat="44.42698" lon="1.32084">
        <ele>310.76</ele>
        <time>2014-04-01T11:31:24Z</time>
      </trkpt>
      <trkpt lat="44.42683" lon="1.32115">
        <ele>309.499</ele>
        <time>2014-04-01T11:31:31Z</time>
      </trkpt>
      <trkpt lat="44.42678" lon="1.32131">
        <ele>308.779</ele>
        <time>2014-04-01T11:31:34Z</time>
      </trkpt>
      <trkpt lat="44.42669" lon="1.32177">
        <ele>307.589</ele>
        <time>2014-04-01T11:31:42Z</time>
      </trkpt>
      <trkpt lat="44.42664" lon="1.32221">
        <ele>306.759</ele>
        <time>2014-04-01T11:31:50Z</time>
      </trkpt>
      <trkpt lat="44.42666" lon="1.32257">
        <ele>306.139</ele>
        <time>2014-04-01T11:31:57Z</time>
      </trkpt>
      <trkpt lat="44.42676" lon="1.32291">
        <ele>306.02</ele>
        <time>2014-04-01T11:32:04Z</time>
      </trkpt>
      <trkpt lat="44.42691" lon="1.32335">
        <ele>306.6</ele>
        <time>2014-04-01T11:32:13Z</time>
      </trkpt>
      <trkpt lat="44.42704" lon="1.3238">
        <ele>307.21</ele>
        <time>2014-04-01T11:32:22Z</time>
      </trkpt>
      <trkpt lat="44.42722" lon="1.32428">
        <ele>307.77</ele>
        <time>2014-04-01T11:32:32Z</time>
      </trkpt>
      <trkpt lat="44.42743" lon="1.3247">
        <ele>309.001</ele>
        <time>2014-04-01T11:32:42Z</time>
      </trkpt>
      <trkpt lat="44.42767" lon="1.32503">
        <ele>309.861</ele>
        <time>2014-04-01T11:32:51Z</time>
      </trkpt>
      <trkpt lat="44.42796" lon="1.32538">
        <ele>311.321</ele>
        <time>2014-04-01T11:33:01Z</time>
      </trkpt>
      <trkpt lat="44.42831" lon="1.32577">
        <ele>312.991</ele>
        <time>2014-04-01T11:33:13Z</time>
      </trkpt>
      <trkpt lat="44.42864" lon="1.32614">
        <ele>314.03</ele>
        <time>2014-04-01T11:33:25Z</time>
      </trkpt>
      <trkpt lat="44.42877" lon="1.32629">
        <ele>312.969</ele>
        <time>2014-04-01T11:33:29Z</time>
      </trkpt>
      <trkpt lat="44.42886" lon="1.32635">
        <ele>312.318</ele>
        <time>2014-04-01T11:33:31Z</time>
      </trkpt>
      <trkpt lat="44.429" lon="1.32643">
        <ele>311.249</ele>
        <time>2014-04-01T11:33:34Z</time>
      </trkpt>
      <trkpt lat="44.42922" lon="1.32647">
        <ele>309.899</ele>
        <time>2014-04-01T11:33:39Z</time>
      </trkpt>
      <trkpt lat="44.42936" lon="1.32657">
        <ele>307.909</ele>
        <time>2014-04-01T11:33:43Z</time>
      </trkpt>
      <trkpt lat="44.42941" lon="1.32658">
        <ele>307.64</ele>
        <time>2014-04-01T11:33:44Z</time>
      </trkpt>
      <trkpt lat="44.42978" lon="1.32667">
        <ele>306.051</ele>
        <time>2014-04-01T11:33:51Z</time>
      </trkpt>
      <trkpt lat="44.4301" lon="1.32684">
        <ele>305.041</ele>
        <time>2014-04-01T11:33:57Z</time>
      </trkpt>
      <trkpt lat="44.43036" lon="1.32694">
        <ele>304.221</ele>
        <time>2014-04-01T11:34:02Z</time>
      </trkpt>
      <trkpt lat="44.43046" lon="1.32697">
        <ele>304.292</ele>
        <time>2014-04-01T11:34:04Z</time>
      </trkpt>
      <trkpt lat="44.43061" lon="1.32712">
        <ele>303.561</ele>
        <time>2014-04-01T11:34:08Z</time>
      </trkpt>
      <trkpt lat="44.43082" lon="1.32719">
        <ele>302.441</ele>
        <time>2014-04-01T11:34:13Z</time>
      </trkpt>
      <trkpt lat="44.43094" lon="1.3272">
        <ele>301.631</ele>
        <time>2014-04-01T11:34:16Z</time>
      </trkpt>
      <trkpt lat="44.43108" lon="1.32733">
        <ele>300.801</ele>
        <time>2014-04-01T11:34:20Z</time>
      </trkpt>
      <trkpt lat="44.43115" lon="1.32738">
        <ele>300.441</ele>
        <time>2014-04-01T11:34:22Z</time>
      </trkpt>
      <trkpt lat="44.43122" lon="1.32742">
        <ele>300.151</ele>
        <time>2014-04-01T11:34:24Z</time>
      </trkpt>
      <trkpt lat="44.43138" lon="1.32761">
        <ele>299.742</ele>
        <time>2014-04-01T11:34:29Z</time>
      </trkpt>
      <trkpt lat="44.43149" lon="1.32767">
        <ele>299.501</ele>
        <time>2014-04-01T11:34:32Z</time>
      </trkpt>
      <trkpt lat="44.43172" lon="1.32768">
        <ele>298.921</ele>
        <time>2014-04-01T11:34:37Z</time>
      </trkpt>
      <trkpt lat="44.43195" lon="1.32761">
        <ele>298.332</ele>
        <time>2014-04-01T11:34:42Z</time>
      </trkpt>
      <trkpt lat="44.43212" lon="1.3276">
        <ele>297.212</ele>
        <time>2014-04-01T11:34:45Z</time>
      </trkpt>
      <trkpt lat="44.43257" lon="1.32755">
        <ele>295.072</ele>
        <time>2014-04-01T11:34:52Z</time>
      </trkpt>
      <trkpt lat="44.43269" lon="1.32752">
        <ele>294.782</ele>
        <time>2014-04-01T11:34:54Z</time>
      </trkpt>
      <trkpt lat="44.4329" lon="1.32752">
        <ele>293.432</ele>
        <time>2014-04-01T11:34:58Z</time>
      </trkpt>
      <trkpt lat="44.43294" lon="1.32751">
        <ele>293.112</ele>
        <time>2014-04-01T11:34:59Z</time>
      </trkpt>
      <trkpt lat="44.43308" lon="1.32747">
        <ele>292.202</ele>
        <time>2014-04-01T11:35:02Z</time>
      </trkpt>
      <trkpt lat="44.43332" lon="1.32729">
        <ele>291.843</ele>
        <time>2014-04-01T11:35:07Z</time>
      </trkpt>
      <trkpt lat="44.43356" lon="1.32711">
        <ele>292.724</ele>
        <time>2014-04-01T11:35:13Z</time>
      </trkpt>
      <trkpt lat="44.43372" lon="1.327">
        <ele>293.444</ele>
        <time>2014-04-01T11:35:18Z</time>
      </trkpt>
      <trkpt lat="44.43378" lon="1.32679">
        <ele>294.323</ele>
        <time>2014-04-01T11:35:24Z</time>
      </trkpt>
      <trkpt lat="44.43385" lon="1.32666">
        <ele>294.834</ele>
        <time>2014-04-01T11:35:28Z</time>
      </trkpt>
      <trkpt lat="44.43404" lon="1.32656">
        <ele>296.194</ele>
        <time>2014-04-01T11:35:35Z</time>
      </trkpt>
      <trkpt lat="44.43415" lon="1.32654">
        <ele>297.164</ele>
        <time>2014-04-01T11:35:40Z</time>
      </trkpt>
      <trkpt lat="44.43433" lon="1.32647">
        <ele>299.045</ele>
        <time>2014-04-01T11:35:48Z</time>
      </trkpt>
      <trkpt lat="44.43447" lon="1.32639">
        <ele>300.815</ele>
        <time>2014-04-01T11:35:55Z</time>
      </trkpt>
      <trkpt lat="44.43459" lon="1.32626">
        <ele>302.575</ele>
        <time>2014-04-01T11:36:02Z</time>
      </trkpt>
      <trkpt lat="44.43473" lon="1.32607">
        <ele>304.465</ele>
        <time>2014-04-01T11:36:11Z</time>
      </trkpt>
      <trkpt lat="44.43485" lon="1.32586">
        <ele>306.865</ele>
        <time>2014-04-01T11:36:21Z</time>
      </trkpt>
      <trkpt lat="44.43491" lon="1.32566">
        <ele>308.505</ele>
        <time>2014-04-01T11:36:29Z</time>
      </trkpt>
      <trkpt lat="44.43498" lon="1.3254">
        <ele>309.899</ele>
        <time>2014-04-01T11:36:38Z</time>
      </trkpt>
      <trkpt lat="44.43501" lon="1.32524">
        <ele>310.706</ele>
        <time>2014-04-01T11:36:44Z</time>
      </trkpt>
      <trkpt lat="44.43502" lon="1.32522">
        <ele>311.056</ele>
        <time>2014-04-01T11:36:47Z</time>
      </trkpt>
    </trkseg>
  </trk>
</gpx>